Time;durP1;ratioP1;P1;durP2;ratioP2;P2;SDS_P1;SDS_P2;PMS_P1;PMS_P2;Temp;Humidity;BMP_temperature;BMP_pressure;BME280_temperature;BME280_humidity;BME280_pressure;Samples;Min_cycle;Max_cycle;Signal;HPM_P1;HPM_P2
2023/02/15 00:02:00;;;;;;;27.48;15.07;;;;;;;5.78;56.36;102865.78;4806373;29;119880;-66
2023/02/15 00:04:46;;;;;;;28.60;15.20;;;;;;;5.77;56.45;102869.28;4804599;29;118894;-66
2023/02/15 00:07:15;;;;;;;31.60;16.08;;;;;;;5.74;56.60;102869.25;4820443;29;122963;-66
2023/02/15 00:09:42;;;;;;;30.48;14.95;;;;;;;5.70;56.34;102872.72;4801632;29;124001;-66
2023/02/15 00:12:10;;;;;;;28.98;14.30;;;;;;;5.65;56.32;102870.94;4811854;29;119157;-66
2023/02/15 00:14:37;;;;;;;27.23;14.75;;;;;;;5.59;56.23;102873.50;4803611;29;120681;-66
2023/02/15 00:17:05;;;;;;;27.70;13.98;;;;;;;5.53;56.21;102876.09;4799019;29;124317;-66
2023/02/15 00:19:33;;;;;;;25.10;14.32;;;;;;;5.49;56.21;102879.56;4801153;29;124575;-66
2023/02/15 00:22:00;;;;;;;27.50;14.50;;;;;;;5.46;56.63;102875.19;4802643;29;119711;-66
2023/02/15 00:24:27;;;;;;;27.25;14.70;;;;;;;5.43;56.30;102874.25;4802152;29;119875;-66
2023/02/15 00:26:54;;;;;;;30.02;16.60;;;;;;;5.41;56.63;102873.38;4796226;29;123981;-66
2023/02/15 00:29:22;;;;;;;31.05;15.50;;;;;;;5.40;56.71;102874.22;4800956;29;123817;-66
2023/02/15 00:31:49;;;;;;;28.40;14.52;;;;;;;5.38;56.62;102865.44;4799360;29;119421;-67
2023/02/15 00:34:22;;;;;;;30.67;15.52;;;;;;;5.37;56.76;102868.94;4817418;29;118119;-67
2023/02/15 00:36:50;;;;;;;27.52;14.88;;;;;;;5.35;56.46;102861.06;4796751;29;124361;-67
2023/02/15 00:39:18;;;;;;;30.60;14.40;;;;;;;5.34;56.50;102855.78;4817060;29;123484;-66
2023/02/15 00:41:46;;;;;;;32.38;14.82;;;;;;;5.30;56.70;102857.50;4797727;29;119419;-65
2023/02/15 00:44:15;;;;;;;31.17;15.48;;;;;;;5.29;56.68;102860.09;4813478;29;118014;-65
2023/02/15 00:46:42;;;;;;;33.15;16.05;;;;;;;5.28;57.03;102853.09;4814584;29;122970;-65
2023/02/15 00:49:10;;;;;;;30.02;15.18;;;;;;;5.26;57.14;102846.06;4815561;29;122818;-65
2023/02/15 00:51:39;;;;;;;30.05;15.80;;;;;;;5.26;56.90;102846.06;4816617;29;118447;-65
2023/02/15 00:54:07;;;;;;;27.63;15.48;;;;;;;5.25;57.24;102844.34;4802160;29;119191;-66
2023/02/15 00:56:34;;;;;;;27.77;14.98;;;;;;;5.26;57.00;102840.81;4801117;29;125265;-66
2023/02/15 00:59:02;;;;;;;28.58;15.27;;;;;;;5.25;57.19;102833.81;4800304;29;122884;-65
2023/02/15 01:01:30;;;;;;;29.95;14.88;;;;;;;5.25;57.36;102825.94;4806426;29;96770;-66
2023/02/15 01:03:57;;;;;;;29.92;16.02;;;;;;;5.26;57.27;102835.56;4806792;29;119209;-66
2023/02/15 01:06:25;;;;;;;27.77;14.75;;;;;;;5.26;56.79;102838.19;4799784;29;124127;-66
2023/02/15 01:08:52;;;;;;;33.95;15.43;;;;;;;5.24;56.91;102832.06;4820925;29;122771;-66
2023/02/15 01:11:21;;;;;;;29.67;15.43;;;;;;;5.24;57.27;102821.53;4819852;29;118711;-66
2023/02/15 01:13:55;;;;;;;30.13;15.35;;;;;;;5.23;57.06;102830.28;4822152;29;118696;-66
2023/02/15 01:16:27;;;;;;;33.88;16.02;;;;;;;5.22;57.08;102828.53;4814141;29;123147;-69
2023/02/15 01:18:54;;;;;;;29.70;14.98;;;;;;;5.20;57.28;102819.75;4803979;29;124010;-66
2023/02/15 01:21:24;;;;;;;30.75;15.85;;;;;;;5.19;57.26;102823.25;4817507;29;118181;-66
2023/02/15 01:23:51;;;;;;;30.33;15.38;;;;;;;5.19;57.27;102817.97;4820849;29;117846;-66
2023/02/15 01:26:20;;;;;;;32.60;15.68;;;;;;;5.17;56.94;102808.34;4813332;29;123295;-66
2023/02/15 01:28:47;;;;;;;28.48;15.57;;;;;;;5.18;57.17;102805.72;4806149;29;123684;-66
2023/02/15 01:31:19;;;;;;;28.92;14.73;;;;;;;5.16;57.05;102804.84;4806042;29;118164;-66
2023/02/15 01:33:47;;;;;;;28.83;15.00;;;;;;;5.14;57.13;102798.69;4819677;29;117950;-66
2023/02/15 01:36:14;;;;;;;31.00;15.40;;;;;;;5.14;57.45;102803.94;4815838;29;123092;-66
2023/02/15 01:38:42;;;;;;;30.30;15.05;;;;;;;5.10;57.11;102796.88;4818532;29;122794;-66
2023/02/15 01:41:43;;;;;;;29.42;14.75;;;;;;;5.09;57.15;102791.66;4812196;29;118345;-66
2023/02/15 01:44:23;;;;;;;28.67;14.13;;;;;;;5.07;57.44;102802.13;4801176;29;119189;-66
2023/02/15 01:46:52;;;;;;;27.23;13.77;;;;;;;5.04;57.11;102802.09;4815885;29;124171;-66
2023/02/15 01:49:25;;;;;;;28.73;14.55;;;;;;;5.01;57.26;102794.16;4814710;29;122822;-66
2023/02/15 01:51:52;;;;;;;28.20;14.40;;;;;;;5.00;57.10;102806.44;4799558;29;120293;-66
2023/02/15 01:54:29;;;;;;;29.60;14.90;;;;;;;4.99;57.41;102798.53;4817852;29;119501;-66
2023/02/15 01:57:04;;;;;;;27.77;14.10;;;;;;;4.99;57.17;102799.44;4799305;29;124130;-66
2023/02/15 01:59:35;;;;;;;29.35;15.15;;;;;;;4.97;57.43;102789.75;4815690;29;123352;-66
2023/02/15 02:02:05;;;;;;;27.95;14.50;;;;;;;4.97;57.26;102789.75;4817654;29;118808;-67
2023/02/15 02:04:39;;;;;;;26.27;13.98;;;;;;;4.96;57.56;102790.63;4812555;29;117226;-68
2023/02/15 02:07:08;;;;;;;28.50;14.70;;;;;;;4.95;57.26;102791.50;4817396;29;122881;-67
2023/02/15 02:09:36;;;;;;;25.30;14.00;;;;;;;4.94;57.41;102780.13;4814575;29;123983;-67
2023/02/15 02:12:05;;;;;;;26.83;14.57;;;;;;;4.93;57.21;102783.59;4813870;29;118210;-66
2023/02/15 02:14:33;;;;;;;26.90;13.95;;;;;;;4.94;57.45;102784.50;4802748;29;118826;-66
2023/02/15 02:17:14;;;;;;;30.65;15.85;;;;;;;4.93;57.53;102782.72;4804311;29;124861;-66
2023/02/15 02:20:12;;;;;;;26.23;14.15;;;;;;;4.91;57.54;102779.19;4805611;29;124134;-66
2023/02/15 02:23:17;;;;;;;29.50;15.00;;;;;;;4.89;57.59;102781.81;4805658;29;119408;-66
2023/02/15 02:26:09;;;;;;;26.23;13.23;;;;;;;4.84;57.61;102778.25;4797476;29;120066;-66
2023/02/15 02:28:48;;;;;;;29.05;13.90;;;;;;;4.81;57.63;102768.59;4811555;29;124126;-66
2023/02/15 02:31:37;;;;;;;30.88;14.77;;;;;;;4.78;57.42;102763.31;4800526;29;123639;-66
2023/02/15 02:34:14;;;;;;;27.67;14.30;;;;;;;4.76;57.77;102775.53;4812709;29;118264;-66
2023/02/15 02:36:55;;;;;;;31.02;14.80;;;;;;;4.76;57.58;102770.31;4821771;29;117106;-66
2023/02/15 02:39:28;;;;;;;32.25;15.15;;;;;;;4.76;57.46;102769.44;4808038;29;124609;-66
2023/02/15 02:42:00;;;;;;;29.88;14.52;;;;;;;4.75;57.67;102768.56;4812559;29;123948;-66
2023/02/15 02:44:46;;;;;;;30.65;15.25;;;;;;;4.75;57.64;102763.31;4820706;29;119467;-66
2023/02/15 02:47:43;;;;;;;27.00;13.93;;;;;;;4.74;57.61;102766.78;4805712;29;120514;-66
2023/02/15 02:50:17;;;;;;;28.10;14.40;;;;;;;4.74;57.84;102761.53;4803902;29;123680;-66
2023/02/15 02:52:47;;;;;;;28.83;14.27;;;;;;;4.75;57.55;102752.81;4819928;29;123560;-66
2023/02/15 02:55:30;;;;;;;31.75;15.90;;;;;;;4.75;57.76;102752.81;4806867;29;119224;-66
2023/02/15 02:58:40;;;;;;;29.70;14.70;;;;;;;4.73;57.82;102749.28;4819314;29;118284;-66
2023/02/15 03:01:27;;;;;;;27.40;14.70;;;;;;;4.72;57.72;102741.41;4796733;29;123819;-67
2023/02/15 03:04:01;;;;;;;31.98;14.00;;;;;;;4.69;57.52;102739.63;4820067;29;122989;-66
2023/02/15 03:06:32;;;;;;;29.75;15.15;;;;;;;4.67;57.72;102736.09;4807010;29;119801;-66
2023/02/15 03:09:18;;;;;;;30.70;13.85;;;;;;;4.63;57.83;102731.66;4803103;29;119131;-67
2023/02/15 03:11:46;;;;;;;29.92;14.38;;;;;;;4.62;57.79;102729.94;4806929;29;124267;-66
2023/02/15 03:14:17;;;;;;;28.27;14.77;;;;;;;4.61;57.73;102728.16;4821708;29;122933;-66
2023/02/15 03:16:48;;;;;;;30.42;15.10;;;;;;;4.61;57.97;102720.28;4817112;29;118441;-66
2023/02/15 03:19:29;;;;;;;29.75;14.48;;;;;;;4.60;58.11;102726.41;4824697;29;118109;-66
2023/02/15 03:22:09;;;;;;;30.10;14.70;;;;;;;4.61;57.86;102730.78;4823186;29;122805;-66
2023/02/15 03:24:55;;;;;;;32.97;14.63;;;;;;;4.60;58.01;102726.41;4804076;29;122712;-66
2023/02/15 03:27:27;;;;;;;27.88;13.98;;;;;;;4.60;57.76;102723.78;4822231;29;118064;-66
2023/02/15 03:29:58;;;;;;;28.25;13.60;;;;;;;4.59;57.71;102722.00;4822800;29;118295;-66
2023/02/15 03:32:30;;;;;;;28.55;14.55;;;;;;;4.57;57.85;102711.50;4822086;29;124157;-66
2023/02/15 03:34:57;;;;;;;25.58;13.25;;;;;;;4.59;57.68;102724.63;4805915;29;123969;-66
2023/02/15 03:37:52;;;;;;;28.83;14.85;;;;;;;4.58;57.97;102722.91;4805752;29;120480;-66
2023/02/15 03:43:21;;;;;;;29.92;14.98;;;;;;;4.54;57.75;102710.59;4815127;29;123456;-66
2023/02/15 03:45:54;;;;;;;26.45;13.07;;;;;;;4.51;57.98;102710.56;4800683;29;123108;-67
2023/02/15 03:48:33;;;;;;;24.83;13.25;;;;;;;4.48;57.70;102701.81;4821930;29;119251;-66
2023/02/15 03:53:55;;;;;;;27.23;13.00;;;;;;;4.44;57.90;102702.63;4808885;29;124136;-66
2023/02/15 03:56:22;;;;;;;24.88;12.98;;;;;;;4.41;57.98;102705.22;4800956;29;124022;-66
2023/02/15 04:01:58;;;;;;;24.50;13.50;;;;;;;4.37;57.90;102698.19;4801898;29;119090;-65
2023/02/15 04:04:38;;;;;;;25.58;12.77;;;;;;;4.33;57.77;102685.88;4809054;29;123981;-66
2023/02/15 04:07:08;;;;;;;26.67;12.60;;;;;;;4.32;57.87;102688.50;4802699;29;123924;-65
2023/02/15 04:12:21;;;;;;;24.45;12.75;;;;;;;4.27;57.51;102685.81;4805425;29;119603;-65
2023/02/15 04:17:36;;;;;;;26.67;13.02;;;;;;;4.22;57.96;102692.75;4799989;29;124046;-65
2023/02/15 04:25:35;;;;;;;;;;;;;;;4.18;57.85;102702.34;4797948;29;124903;-65
2023/02/15 04:28:03;;;;;;;34.53;14.55;;;;;;;4.18;57.62;102696.22;4802269;29;124447;-65
2023/02/15 04:30:30;;;;;;;27.10;14.18;;;;;;;4.17;57.74;102704.97;4803037;29;121122;-66
2023/02/15 04:32:57;;;;;;;28.73;14.07;;;;;;;4.15;57.76;102706.69;4800089;29;120239;-66
2023/02/15 04:35:25;;;;;;;29.58;14.55;;;;;;;4.13;57.93;102697.91;4800697;29;124267;-66
2023/02/15 04:37:52;;;;;;;29.08;14.50;;;;;;;4.10;57.72;102699.63;4803456;29;123170;-66
2023/02/15 04:40:20;;;;;;;31.90;14.90;;;;;;;4.09;58.02;102692.63;4801043;29;119938;-66
2023/02/15 04:42:49;;;;;;;28.88;14.02;;;;;;;4.09;58.09;102691.75;4806538;29;119191;-65
2023/02/15 04:45:16;;;;;;;25.60;13.43;;;;;;;4.07;57.78;102689.13;4795456;29;123649;-66
2023/02/15 04:47:44;;;;;;;25.58;13.25;;;;;;;4.06;57.90;102697.81;4818471;29;122849;-66
2023/02/15 04:50:11;;;;;;;28.23;14.23;;;;;;;4.06;58.11;102686.47;4816139;29;118163;-65
2023/02/15 04:52:39;;;;;;;26.42;13.68;;;;;;;4.05;57.93;102685.59;4807655;29;119277;-66
2023/02/15 04:55:06;;;;;;;29.70;14.43;;;;;;;4.05;58.08;102685.59;4802852;29;124497;-66
2023/02/15 04:57:34;;;;;;;29.77;13.77;;;;;;;4.04;58.10;102683.81;4811766;29;124220;-66
2023/02/15 05:00:01;;;;;;;31.08;15.40;;;;;;;4.04;58.05;102681.19;4801087;29;119342;-66
2023/02/15 05:02:28;;;;;;;30.92;14.32;;;;;;;4.04;58.06;102678.56;4805208;29;119438;-65
2023/02/15 05:04:56;;;;;;;30.98;14.88;;;;;;;4.03;58.16;102678.56;4802880;29;124689;-66
2023/02/15 05:07:23;;;;;;;30.33;14.30;;;;;;;4.02;58.07;102680.31;4810646;29;124622;-67
2023/02/15 05:09:50;;;;;;;28.13;14.55;;;;;;;4.00;58.12;102676.78;4799477;29;119271;-67
2023/02/15 05:12:17;;;;;;;30.40;15.07;;;;;;;3.98;57.97;102673.28;4818215;29;118614;-66
2023/02/15 05:14:44;;;;;;;31.80;15.48;;;;;;;3.97;58.27;102661.00;4799773;29;124228;-66
2023/02/15 05:17:12;;;;;;;34.80;15.57;;;;;;;3.97;58.27;102666.25;4801687;29;124398;-66
2023/02/15 05:19:39;;;;;;;31.73;16.30;;;;;;;3.97;58.16;102666.25;4813668;29;118989;-66
2023/02/15 05:22:06;;;;;;;31.38;15.55;;;;;;;3.97;58.28;102671.50;4804154;29;120037;-66
2023/02/15 05:30:11;;;;;;;36.03;15.98;;;;;;;3.97;58.33;102661.00;4798043;29;119686;-66
2023/02/15 05:32:39;;;;;;;34.08;16.35;;;;;;;3.97;58.22;102655.75;4807336;29;119431;-66
2023/02/15 05:35:07;;;;;;;37.78;16.58;;;;;;;3.97;58.25;102660.13;4813965;29;123047;-66
2023/02/15 05:37:34;;;;;;;36.60;17.38;;;;;;;3.98;58.39;102661.91;4800685;29;122704;-66
2023/02/15 05:40:02;;;;;;;35.92;15.82;;;;;;;3.99;58.28;102654.03;4800138;29;120035;-66
2023/02/15 05:42:29;;;;;;;31.85;16.27;;;;;;;4.00;58.50;102650.56;4806655;29;119680;-66
2023/02/15 05:44:56;;;;;;;37.55;16.67;;;;;;;4.01;58.54;102652.34;4806237;29;124049;-66
2023/02/15 05:47:23;;;;;;;36.50;16.15;;;;;;;4.01;58.49;102647.09;4805269;29;124027;-66
2023/02/15 05:49:51;;;;;;;35.88;16.70;;;;;;;4.02;58.60;102650.59;4798809;29;119329;-66
2023/02/15 05:52:18;;;;;;;33.63;16.48;;;;;;;4.03;58.31;102657.56;4801062;29;118458;-67
2023/02/15 05:54:45;;;;;;;36.38;16.98;;;;;;;4.04;58.43;102657.59;4805361;29;128011;-66
2023/02/15 05:57:12;;;;;;;36.13;16.77;;;;;;;4.04;58.55;102657.59;4798958;29;122838;-66
2023/02/15 05:59:39;;;;;;;37.10;17.52;;;;;;;4.05;58.50;102654.13;4812897;29;118549;-65
2023/02/15 06:02:06;;;;;;;34.55;16.38;;;;;;;4.04;58.37;102657.59;4805705;29;119473;-65
2023/02/15 06:04:34;;;;;;;36.50;16.40;;;;;;;4.03;58.58;102655.88;4796672;29;124153;-65
2023/02/15 06:07:01;;;;;;;36.65;16.67;;;;;;;4.04;58.51;102656.72;4814192;29;123546;-65
2023/02/15 06:09:28;;;;;;;37.55;16.48;;;;;;;4.03;58.06;102660.19;4794950;29;120512;-65
2023/02/15 06:11:55;;;;;;;37.45;16.42;;;;;;;4.00;58.19;102661.06;4802641;29;120821;-66
2023/02/15 06:14:23;;;;;;;37.72;17.45;;;;;;;3.98;58.38;102662.78;4800211;29;124325;-65
2023/02/15 06:16:50;;;;;;;38.65;16.98;;;;;;;3.96;58.29;102659.28;4802150;29;123247;-65
2023/02/15 06:19:17;;;;;;;33.45;16.33;;;;;;;3.94;58.36;102666.25;4801901;29;119523;-65
2023/02/15 06:21:46;;;;;;;36.33;16.63;;;;;;;3.92;58.28;102667.97;4813526;29;118507;-65
2023/02/15 06:24:13;;;;;;;34.00;14.90;;;;;;;3.90;58.02;102667.06;4806400;29;123847;-65
2023/02/15 06:26:40;;;;;;;23.33;9.73;;;;;;;3.86;58.05;102662.63;4813980;29;124822;-65
2023/02/15 06:29:07;;;;;;;27.27;10.18;;;;;;;3.84;58.35;102659.09;4818826;29;118466;-66
2023/02/15 06:31:35;;;;;;;25.13;10.70;;;;;;;3.81;58.20;102664.34;4802036;29;119296;-66
2023/02/15 06:34:02;;;;;;;27.63;10.52;;;;;;;3.80;58.21;102673.03;4800632;29;124044;-65
2023/02/15 06:36:31;;;;;;;24.38;10.23;;;;;;;3.79;58.02;102664.31;4814209;29;122940;-65
2023/02/15 06:38:58;;;;;;;28.33;11.23;;;;;;;3.77;57.95;102662.50;4799717;29;119365;-65
2023/02/15 06:41:25;;;;;;;24.33;11.50;;;;;;;3.76;58.18;102681.72;4799274;29;119529;-66
2023/02/15 06:43:53;;;;;;;27.35;11.05;;;;;;;3.73;58.04;102676.44;4796123;29;123969;-66
2023/02/15 06:46:20;;;;;;;26.45;11.65;;;;;;;3.70;57.92;102667.69;4794679;29;124048;-66
2023/02/15 06:48:47;;;;;;;24.60;11.23;;;;;;;3.70;58.26;102662.44;4800678;29;119556;-68
2023/02/15 06:51:14;;;;;;;27.25;10.82;;;;;;;3.70;58.00;102664.19;4802622;29;119295;-66
2023/02/15 06:53:42;;;;;;;25.77;11.43;;;;;;;3.70;57.97;102667.69;4800176;29;125692;-67
2023/02/15 06:56:10;;;;;;;30.70;11.48;;;;;;;3.68;58.18;102664.16;4801528;29;124208;-66
2023/02/15 06:58:41;;;;;;;24.85;11.32;;;;;;;3.68;58.00;102664.16;4806271;29;120364;-67
2023/02/15 07:01:09;;;;;;;28.33;11.90;;;;;;;3.69;58.17;102665.03;4800762;29;120169;-67
2023/02/15 07:03:36;;;;;;;28.73;11.65;;;;;;;3.68;57.93;102658.91;4806485;29;124503;-67
2023/02/15 07:06:07;;;;;;;28.95;12.00;;;;;;;3.68;57.78;102653.69;4794198;29;124696;-66
2023/02/15 07:08:36;;;;;;;25.25;11.25;;;;;;;3.67;58.08;102657.19;4802568;29;119167;-67
2023/02/15 07:13:52;;;;;;;27.95;11.40;;;;;;;3.68;57.96;102658.03;4804718;29;124174;-67
2023/02/15 07:16:20;;;;;;;32.17;12.50;;;;;;;3.68;57.94;102652.81;4819611;29;122634;-67
2023/02/15 07:18:47;;;;;;;31.27;12.10;;;;;;;3.67;58.22;102641.47;4800088;29;119398;-67
2023/02/15 07:21:14;;;;;;;28.02;11.57;;;;;;;3.67;57.98;102641.47;4822446;29;118072;-67
2023/02/15 07:23:42;;;;;;;30.13;11.65;;;;;;;3.70;58.22;102645.84;4801034;29;125085;-67
2023/02/15 07:26:09;;;;;;;30.85;12.65;;;;;;;3.72;58.24;102648.50;4811761;29;123920;-67
2023/02/15 07:28:36;;;;;;;29.30;11.65;;;;;;;3.73;58.07;102642.38;4808823;29;119695;-67
2023/02/15 07:31:05;;;;;;;32.08;12.23;;;;;;;3.75;58.19;102627.53;4812025;29;119083;-68
2023/02/15 07:33:34;;;;;;;30.80;12.20;;;;;;;3.77;58.14;102629.34;4813273;29;124416;-67
2023/02/15 07:36:03;;;;;;;31.02;12.35;;;;;;;3.81;58.22;102625.03;4823329;29;122757;-67
2023/02/15 07:38:33;;;;;;;37.17;13.45;;;;;;;3.86;58.25;102629.44;4811766;29;120121;-67
2023/02/15 07:41:02;;;;;;;36.42;15.00;;;;;;;3.90;58.45;102633.00;4824021;29;119048;-67
2023/02/15 07:43:32;;;;;;;35.58;15.30;;;;;;;3.95;58.58;102625.16;4804293;29;124240;-67
2023/02/15 07:46:00;;;;;;;35.75;16.15;;;;;;;3.99;58.68;102627.81;4824434;29;123653;-67
2023/02/15 07:48:28;;;;;;;43.45;16.65;;;;;;;4.04;58.64;102620.91;4833631;29;119232;-67
2023/02/15 07:50:59;;;;;;;36.60;15.57;;;;;;;4.09;58.41;102627.09;4835323;29;119278;-67
2023/02/15 07:53:27;;;;;;;37.58;16.20;;;;;;;4.15;58.71;102628.00;4820789;29;124747;-66
2023/02/15 07:55:58;;;;;;;39.10;15.45;;;;;;;4.21;58.57;102633.31;4817574;29;124034;-67
2023/02/15 07:58:50;;;;;;;37.72;17.73;;;;;;;4.27;58.54;102628.13;4831576;29;118239;-69
2023/02/15 08:01:14;;;;;;;35.97;16.38;;;;;;;4.31;58.64;102629.91;4802829;29;119017;-67
2023/02/15 08:03:42;;;;;;;34.30;15.95;;;;;;;4.36;58.51;102625.59;4829490;29;124899;-67
2023/02/15 08:06:11;;;;;;;37.95;16.65;;;;;;;4.41;58.62;102623.91;4832803;29;123893;-67
2023/02/15 08:08:39;;;;;;;38.25;16.80;;;;;;;4.48;58.87;102628.34;4831472;29;119147;-67
2023/02/15 08:11:35;;;;;;;35.72;17.27;;;;;;;4.54;58.90;102626.63;4824082;29;119328;-67
2023/02/15 08:14:07;;;;;;;40.00;16.85;;;;;;;4.60;58.93;102616.19;4805517;29;124972;-68
2023/02/15 08:16:40;;;;;;;41.45;16.75;;;;;;;4.67;59.01;102612.72;4812073;29;123189;-68
2023/02/15 08:19:10;;;;;;;34.78;15.73;;;;;;;4.74;58.69;102613.69;4805207;29;118264;-68
2023/02/15 08:21:41;;;;;;;39.17;16.67;;;;;;;4.79;58.96;102607.59;4804311;29;119221;-69
2023/02/15 08:24:09;;;;;;;34.22;14.77;;;;;;;4.87;58.86;102615.53;4802200;29;124078;-68
2023/02/15 08:26:38;;;;;;;34.78;15.82;;;;;;;4.94;58.85;102600.72;4818015;29;123936;-69
2023/02/15 08:29:08;;;;;;;38.38;16.10;;;;;;;5.01;59.07;102597.22;4818155;29;122599;-69
2023/02/15 08:31:37;;;;;;;38.40;16.88;;;;;;;5.07;58.85;102597.28;4822870;29;119590;-69
2023/02/15 08:34:05;;;;;;;43.72;16.48;;;;;;;5.15;58.81;102595.56;4799020;29;123459;-69
2023/02/15 08:36:32;;;;;;;43.90;16.92;;;;;;;5.22;58.63;102600.00;4800316;29;123872;-68
2023/02/15 08:39:01;;;;;;;36.75;16.85;;;;;;;5.28;58.91;102600.91;4816213;29;120159;-69
2023/02/15 08:41:31;;;;;;;37.30;16.90;;;;;;;5.35;58.92;102592.16;4801635;29;120394;-69
2023/02/15 08:44:00;;;;;;;40.55;17.38;;;;;;;5.42;58.80;102599.22;4804242;29;123969;-69
2023/02/15 08:46:31;;;;;;;37.08;17.60;;;;;;;5.49;59.06;102593.13;4804260;29;123852;-69
2023/02/15 08:48:58;;;;;;;38.55;17.13;;;;;;;5.56;59.22;102592.28;4821251;29;119384;-69
2023/02/15 08:51:28;;;;;;;42.35;19.10;;;;;;;5.63;58.96;102588.81;4818584;29;118748;-69
2023/02/15 08:53:58;;;;;;;43.45;19.65;;;;;;;5.71;58.97;102590.56;4805759;29;124460;-69
2023/02/15 08:56:28;;;;;;;40.53;18.85;;;;;;;5.79;59.23;102588.84;4804562;29;122762;-69
2023/02/15 08:58:55;;;;;;;47.60;19.17;;;;;;;5.87;59.02;102581.84;4829160;29;119282;-69
2023/02/15 09:01:28;;;;;;;45.45;19.08;;;;;;;5.94;59.27;102586.25;4806975;29;119642;-70
2023/02/15 09:03:58;;;;;;;38.35;17.83;;;;;;;6.04;59.32;102581.94;4832363;29;123977;-69
2023/02/15 09:06:28;;;;;;;42.17;18.15;;;;;;;6.13;59.32;102579.31;4814442;29;122993;-69
2023/02/15 09:08:56;;;;;;;40.55;18.05;;;;;;;6.24;59.53;102587.22;4817055;29;118832;-69
2023/02/15 09:11:30;;;;;;;46.10;17.88;;;;;;;6.34;59.55;102578.44;4821720;29;118331;-69
2023/02/15 09:13:59;;;;;;;41.05;18.25;;;;;;;6.43;59.35;102572.31;4815268;29;124331;-70
2023/02/15 09:16:32;;;;;;;41.58;17.27;;;;;;;6.55;59.57;102584.59;4833980;29;123858;-70
2023/02/15 09:19:04;;;;;;;42.30;18.48;;;;;;;6.66;59.47;102574.06;4827331;29;118446;-70
2023/02/15 09:21:33;;;;;;;41.90;18.13;;;;;;;6.77;59.49;102583.72;4803122;29;119413;-70
2023/02/15 09:24:04;;;;;;;41.83;17.77;;;;;;;6.89;59.30;102579.31;4802292;29;123293;-69
2023/02/15 09:26:34;;;;;;;46.65;18.27;;;;;;;7.01;59.67;102577.53;4816096;29;123809;-70
2023/02/15 09:29:03;;;;;;;38.08;17.17;;;;;;;7.11;59.82;102573.09;4830977;29;120378;-70
2023/02/15 09:31:34;;;;;;;40.05;17.73;;;;;;;7.22;59.23;102566.03;4823077;29;120004;-70
2023/02/15 09:34:01;;;;;;;39.33;18.20;;;;;;;7.33;59.29;102562.50;4817244;29;123904;-70
2023/02/15 09:36:34;;;;;;;36.97;17.90;;;;;;;7.44;58.96;102571.25;4815855;29;123983;-70
2023/02/15 09:39:20;;;;;;;36.28;16.90;;;;;;;7.54;59.26;102572.09;4812272;29;119487;-70
2023/02/15 09:42:09;;;;;;;39.00;16.98;;;;;;;7.67;59.52;102567.63;4808461;29;119640;-74
2023/02/15 09:45:04;;;;;;;37.38;17.02;;;;;;;7.78;59.30;102565.81;4799705;29;124399;-70
2023/02/15 09:48:06;;;;;;;42.53;18.02;;;;;;;7.90;59.13;102559.59;4802422;29;123805;-70
2023/02/15 09:50:46;;;;;;;37.00;17.67;;;;;;;8.03;59.47;102560.38;4831551;29;119464;-70
2023/02/15 09:53:38;;;;;;;43.85;19.27;;;;;;;8.13;59.20;102552.38;4819866;29;118854;-69
2023/02/15 09:56:16;;;;;;;39.85;18.48;;;;;;;8.26;59.28;102553.16;4813122;29;124204;-69
2023/02/15 09:59:20;;;;;;;36.53;18.23;;;;;;;8.39;59.27;102554.81;4832157;29;124250;-69
2023/02/15 10:01:54;;;;;;;41.95;18.45;;;;;;;8.54;59.29;102547.69;4812852;29;119256;-69
2023/02/15 10:04:42;;;;;;;45.35;19.08;;;;;;;8.66;59.30;102552.84;4813599;29;118933;-69
2023/02/15 10:07:45;;;;;;;39.53;19.08;;;;;;;8.85;59.05;102552.66;4825825;29;123992;-69
2023/02/15 10:10:22;;;;;;;36.83;18.27;;;;;;;8.99;59.14;102550.75;4795111;29;123751;-70
2023/02/15 10:13:09;;;;;;;37.67;17.80;;;;;;;9.14;59.20;102547.94;4817463;29;117752;-69
2023/02/15 10:16:11;;;;;;;37.22;17.13;;;;;;;9.29;58.77;102543.38;4800264;29;118909;-69
2023/02/15 10:18:41;;;;;;;36.05;17.75;;;;;;;9.45;58.80;102550.19;4800913;29;123853;-69
2023/02/15 10:21:30;;;;;;;39.97;18.33;;;;;;;9.60;58.60;102548.25;4814934;29;124535;-68
2023/02/15 10:24:26;;;;;;;37.83;17.80;;;;;;;9.75;58.39;102543.63;4817155;29;120265;-69
2023/02/15 10:26:59;;;;;;;41.53;17.80;;;;;;;9.91;58.36;102539.00;4817868;29;119256;-69
2023/02/15 10:29:36;;;;;;;41.47;17.70;;;;;;;10.06;58.17;102542.31;4812172;29;124072;-70
2023/02/15 10:32:24;;;;;;;36.72;17.35;;;;;;;10.20;58.21;102535.00;4829120;29;123256;-69
2023/02/15 10:35:21;;;;;;;38.22;17.33;;;;;;;10.36;58.00;102540.09;4822778;29;118672;-69
2023/02/15 10:38:26;;;;;;;36.22;18.10;;;;;;;10.51;58.13;102546.00;4801269;29;118128;-70
2023/02/15 10:41:18;;;;;;;39.10;17.30;;;;;;;10.67;58.02;102546.59;4799047;29;124370;-70
2023/02/15 10:44:10;;;;;;;35.58;16.55;;;;;;;10.82;57.57;102544.59;4830275;29;123794;-70
2023/02/15 10:46:55;;;;;;;36.33;16.92;;;;;;;10.95;57.45;102535.50;4811907;29;119436;-70
2023/02/15 10:49:47;;;;;;;37.17;17.73;;;;;;;11.09;57.37;102533.44;4824895;29;119475;-71
2023/02/15 10:52:25;;;;;;;34.38;15.93;;;;;;;11.22;57.38;102535.84;4814133;29;124361;-70
2023/02/15 10:55:15;;;;;;;31.23;14.93;;;;;;;11.37;57.34;102540.81;4803057;29;123942;-70
2023/02/15 10:58:05;;;;;;;33.05;15.95;;;;;;;11.50;57.06;102534.34;4804077;29;118298;-70
2023/02/15 11:00:44;;;;;;;35.20;15.68;;;;;;;11.64;56.98;102531.41;4841261;29;117393;-70
2023/02/15 11:03:52;;;;;;;35.45;14.45;;;;;;;11.79;56.79;102535.50;4819168;29;125253;-70
2023/02/15 11:06:22;;;;;;;30.23;14.60;;;;;;;11.94;56.51;102530.75;4807116;29;124663;-70
2023/02/15 11:09:02;;;;;;;32.33;14.90;;;;;;;12.06;56.20;102522.50;4825031;29;118517;-70
2023/02/15 11:11:31;;;;;;;37.00;16.13;;;;;;;12.17;56.03;102520.47;4816182;29;119137;-70
2023/02/15 11:14:10;;;;;;;30.40;14.85;;;;;;;12.31;56.03;102517.44;4815481;29;123150;-70
2023/02/15 11:16:44;;;;;;;34.35;15.60;;;;;;;12.46;55.77;102516.19;4820175;29;123711;-70
2023/02/15 11:19:16;;;;;;;28.95;14.63;;;;;;;12.60;55.56;102514.03;4806651;29;119684;-71
2023/02/15 11:21:49;;;;;;;29.50;14.77;;;;;;;12.73;55.46;102511.03;4816966;29;119459;-70
2023/02/15 11:24:19;;;;;;;32.15;14.35;;;;;;;12.86;55.36;102509.78;4826818;29;124365;-70
2023/02/15 11:26:56;;;;;;;30.77;14.18;;;;;;;12.98;54.92;102514.78;4802753;29;124546;-69
2023/02/15 11:29:52;;;;;;;31.90;14.55;;;;;;;13.13;54.83;102515.22;4822694;29;119258;-72
2023/02/15 11:32:23;;;;;;;28.77;13.52;;;;;;;13.25;54.64;102506.91;4815672;29;119454;-70
2023/02/15 11:35:01;;;;;;;28.60;13.82;;;;;;;13.38;54.41;102513.63;4815799;29;124149;-70
2023/02/15 11:37:52;;;;;;;31.23;14.60;;;;;;;13.53;54.29;102508.78;4813314;29;124661;-70
2023/02/15 11:40:26;;;;;;;28.67;14.80;;;;;;;13.66;54.45;102494.16;4805166;29;119738;-70
2023/02/15 11:42:57;;;;;;;28.80;14.73;;;;;;;13.80;54.26;102497.25;4812806;29;119136;-70
2023/02/15 11:45:34;;;;;;;31.50;15.13;;;;;;;13.95;53.80;102493.22;4811662;29;124828;-70
2023/02/15 11:48:09;;;;;;;31.38;15.23;;;;;;;14.09;53.56;102490.13;4809234;29;123477;-70
2023/02/15 11:50:37;;;;;;;31.40;14.68;;;;;;;14.20;53.42;102482.63;4808440;29;119725;-70
2023/02/15 11:53:11;;;;;;;29.30;14.20;;;;;;;14.31;52.98;102474.25;4803484;29;119662;-70
2023/02/15 11:55:39;;;;;;;29.27;15.23;;;;;;;14.41;52.89;102474.81;4812786;29;124169;-70
2023/02/15 11:58:29;;;;;;;29.50;14.65;;;;;;;14.49;52.65;102472.75;4802867;29;124290;-70
2023/02/15 12:01:04;;;;;;;33.35;15.23;;;;;;;14.59;52.34;102462.66;4803907;29;118302;-70
2023/02/15 12:03:46;;;;;;;30.75;14.98;;;;;;;14.70;52.18;102459.59;4825430;29;119092;-70
2023/02/15 12:06:29;;;;;;;30.55;14.48;;;;;;;14.80;52.07;102455.66;4802211;29;124781;-70